sensor_id;sensor_type;location;lat;lon;timestamp;temperature;humidity
15947;DHT22;8072;52.554;7.966;2023-09-19T00:01:07;16.30;99.90
15947;DHT22;8072;52.554;7.966;2023-09-19T00:03:37;16.30;99.90
15947;DHT22;8072;52.554;7.966;2023-09-19T00:06:04;16.30;99.90
15947;DHT22;8072;52.554;7.966;2023-09-19T00:08:31;16.30;99.90
15947;DHT22;8072;52.554;7.966;2023-09-19T00:10:58;16.30;99.90
15947;DHT22;8072;52.554;7.966;2023-09-19T00:13:29;16.30;99.90
15947;DHT22;8072;52.554;7.966;2023-09-19T00:15:56;16.30;99.90
15947;DHT22;8072;52.554;7.966;2023-09-19T00:18:25;16.30;99.90
15947;DHT22;8072;52.554;7.966;2023-09-19T00:20:58;16.30;99.90
15947;DHT22;8072;52.554;7.966;2023-09-19T00:23:24;16.30;99.90
15947;DHT22;8072;52.554;7.966;2023-09-19T00:25:50;16.30;99.90
15947;DHT22;8072;52.554;7.966;2023-09-19T00:28:16;16.30;99.90
15947;DHT22;8072;52.554;7.966;2023-09-19T00:30:44;16.40;99.90
15947;DHT22;8072;52.554;7.966;2023-09-19T00:33:11;16.40;99.90
15947;DHT22;8072;52.554;7.966;2023-09-19T00:35:50;16.40;99.90
15947;DHT22;8072;52.554;7.966;2023-09-19T00:38:16;16.40;99.90
15947;DHT22;8072;52.554;7.966;2023-09-19T00:40:44;16.50;99.90
15947;DHT22;8072;52.554;7.966;2023-09-19T00:43:11;16.50;99.90
15947;DHT22;8072;52.554;7.966;2023-09-19T00:45:38;16.40;99.90
15947;DHT22;8072;52.554;7.966;2023-09-19T00:48:08;16.50;99.90
15947;DHT22;8072;52.554;7.966;2023-09-19T00:50:35;16.40;99.90
15947;DHT22;8072;52.554;7.966;2023-09-19T00:53:02;16.40;99.90
15947;DHT22;8072;52.554;7.966;2023-09-19T00:55:35;16.40;99.90
15947;DHT22;8072;52.554;7.966;2023-09-19T00:58:03;16.40;99.90
15947;DHT22;8072;52.554;7.966;2023-09-19T01:00:29;16.40;99.90
15947;DHT22;8072;52.554;7.966;2023-09-19T01:02:56;16.40;99.90
15947;DHT22;8072;52.554;7.966;2023-09-19T01:05:21;16.40;99.90
15947;DHT22;8072;52.554;7.966;2023-09-19T01:07:49;16.40;99.90
15947;DHT22;8072;52.554;7.966;2023-09-19T01:10:19;16.30;99.90
15947;DHT22;8072;52.554;7.966;2023-09-19T01:13:05;16.30;99.90
15947;DHT22;8072;52.554;7.966;2023-09-19T01:23:47;16.10;99.90
15947;DHT22;8072;52.554;7.966;2023-09-19T01:31:42;16.00;99.90
15947;DHT22;8072;52.554;7.966;2023-09-19T01:34:09;16.00;99.90
15947;DHT22;8072;52.554;7.966;2023-09-19T01:36:36;15.90;99.90
15947;DHT22;8072;52.554;7.966;2023-09-19T01:39:04;15.90;99.90
15947;DHT22;8072;52.554;7.966;2023-09-19T01:41:57;15.90;99.90
15947;DHT22;8072;52.554;7.966;2023-09-19T01:44:44;15.90;99.90
15947;DHT22;8072;52.554;7.966;2023-09-19T01:52:56;15.80;99.90
15947;DHT22;8072;52.554;7.966;2023-09-19T01:55:26;15.80;99.90
15947;DHT22;8072;52.554;7.966;2023-09-19T02:00:42;15.80;99.90
15947;DHT22;8072;52.554;7.966;2023-09-19T02:03:11;15.80;99.90
15947;DHT22;8072;52.554;7.966;2023-09-19T02:05:38;15.70;99.90
15947;DHT22;8072;52.554;7.966;2023-09-19T02:08:05;15.70;99.90
15947;DHT22;8072;52.554;7.966;2023-09-19T02:10:31;15.70;99.90
15947;DHT22;8072;52.554;7.966;2023-09-19T02:12:56;15.70;99.90
15947;DHT22;8072;52.554;7.966;2023-09-19T02:15:24;15.70;99.90
15947;DHT22;8072;52.554;7.966;2023-09-19T02:17:50;15.70;99.90
15947;DHT22;8072;52.554;7.966;2023-09-19T02:20:16;15.70;99.90
15947;DHT22;8072;52.554;7.966;2023-09-19T02:22:43;15.70;99.90
15947;DHT22;8072;52.554;7.966;2023-09-19T02:25:10;15.60;99.90
15947;DHT22;8072;52.554;7.966;2023-09-19T02:27:36;15.60;99.90
15947;DHT22;8072;52.554;7.966;2023-09-19T02:30:04;15.60;99.90
15947;DHT22;8072;52.554;7.966;2023-09-19T02:32:31;15.60;99.90
15947;DHT22;8072;52.554;7.966;2023-09-19T02:35:01;15.60;99.90
15947;DHT22;8072;52.554;7.966;2023-09-19T02:37:27;15.50;99.90
15947;DHT22;8072;52.554;7.966;2023-09-19T02:39:53;15.40;99.90
15947;DHT22;8072;52.554;7.966;2023-09-19T02:42:19;15.40;99.90
15947;DHT22;8072;52.554;7.966;2023-09-19T02:44:44;15.40;99.90
15947;DHT22;8072;52.554;7.966;2023-09-19T02:47:12;15.40;99.90
15947;DHT22;8072;52.554;7.966;2023-09-19T02:49:38;15.40;99.90
15947;DHT22;8072;52.554;7.966;2023-09-19T02:52:04;15.30;99.90
15947;DHT22;8072;52.554;7.966;2023-09-19T02:54:30;15.30;99.90
15947;DHT22;8072;52.554;7.966;2023-09-19T02:56:56;15.30;99.90
15947;DHT22;8072;52.554;7.966;2023-09-19T02:59:22;15.30;99.90
15947;DHT22;8072;52.554;7.966;2023-09-19T03:01:49;15.20;99.90
15947;DHT22;8072;52.554;7.966;2023-09-19T03:04:15;15.20;99.90
15947;DHT22;8072;52.554;7.966;2023-09-19T03:06:46;15.20;99.90
15947;DHT22;8072;52.554;7.966;2023-09-19T03:09:12;15.20;99.90
15947;DHT22;8072;52.554;7.966;2023-09-19T03:11:39;15.20;99.90
15947;DHT22;8072;52.554;7.966;2023-09-19T03:14:06;15.20;99.90
15947;DHT22;8072;52.554;7.966;2023-09-19T03:16:32;15.10;99.90
15947;DHT22;8072;52.554;7.966;2023-09-19T03:18:59;15.10;99.90
15947;DHT22;8072;52.554;7.966;2023-09-19T03:21:25;15.10;99.90
15947;DHT22;8072;52.554;7.966;2023-09-19T03:23:51;15.10;99.90
15947;DHT22;8072;52.554;7.966;2023-09-19T03:26:18;15.00;99.90
15947;DHT22;8072;52.554;7.966;2023-09-19T03:28:45;15.10;99.90
15947;DHT22;8072;52.554;7.966;2023-09-19T03:31:11;15.00;99.90
15947;DHT22;8072;52.554;7.966;2023-09-19T03:33:37;15.00;99.90
15947;DHT22;8072;52.554;7.966;2023-09-19T03:36:03;15.10;99.90
15947;DHT22;8072;52.554;7.966;2023-09-19T03:38:33;15.00;99.90
15947;DHT22;8072;52.554;7.966;2023-09-19T03:41:00;15.10;99.90
15947;DHT22;8072;52.554;7.966;2023-09-19T03:43:26;15.00;99.90
15947;DHT22;8072;52.554;7.966;2023-09-19T03:45:53;15.00;99.90
15947;DHT22;8072;52.554;7.966;2023-09-19T03:48:20;15.10;99.90
15947;DHT22;8072;52.554;7.966;2023-09-19T03:50:47;15.10;99.90
15947;DHT22;8072;52.554;7.966;2023-09-19T03:53:13;15.00;99.90
15947;DHT22;8072;52.554;7.966;2023-09-19T03:55:39;15.00;99.90
15947;DHT22;8072;52.554;7.966;2023-09-19T03:58:05;15.00;99.90
15947;DHT22;8072;52.554;7.966;2023-09-19T04:00:31;14.90;99.90
15947;DHT22;8072;52.554;7.966;2023-09-19T04:02:57;14.90;99.90
15947;DHT22;8072;52.554;7.966;2023-09-19T04:05:23;15.00;99.90
15947;DHT22;8072;52.554;7.966;2023-09-19T04:07:50;15.00;99.90
15947;DHT22;8072;52.554;7.966;2023-09-19T04:10:16;14.90;99.90
15947;DHT22;8072;52.554;7.966;2023-09-19T04:12:55;14.90;99.90
15947;DHT22;8072;52.554;7.966;2023-09-19T04:15:22;14.90;99.90
15947;DHT22;8072;52.554;7.966;2023-09-19T04:17:49;14.90;99.90
15947;DHT22;8072;52.554;7.966;2023-09-19T04:20:16;14.90;99.90
15947;DHT22;8072;52.554;7.966;2023-09-19T04:22:41;14.90;99.90
15947;DHT22;8072;52.554;7.966;2023-09-19T04:25:07;14.90;99.90
15947;DHT22;8072;52.554;7.966;2023-09-19T04:27:34;14.80;99.90
15947;DHT22;8072;52.554;7.966;2023-09-19T04:30:00;14.80;99.90
15947;DHT22;8072;52.554;7.966;2023-09-19T04:32:29;14.80;99.90
15947;DHT22;8072;52.554;7.966;2023-09-19T04:34:57;14.70;99.90
15947;DHT22;8072;52.554;7.966;2023-09-19T04:37:26;14.70;99.90
15947;DHT22;8072;52.554;7.966;2023-09-19T04:39:51;14.70;99.90
15947;DHT22;8072;52.554;7.966;2023-09-19T04:42:17;14.60;99.90
15947;DHT22;8072;52.554;7.966;2023-09-19T04:44:43;14.60;99.90
15947;DHT22;8072;52.554;7.966;2023-09-19T04:47:09;14.60;99.90
15947;DHT22;8072;52.554;7.966;2023-09-19T04:49:34;14.60;99.90
15947;DHT22;8072;52.554;7.966;2023-09-19T04:52:00;14.50;99.90
15947;DHT22;8072;52.554;7.966;2023-09-19T04:54:26;14.50;99.90
15947;DHT22;8072;52.554;7.966;2023-09-19T04:56:52;14.40;99.90
15947;DHT22;8072;52.554;7.966;2023-09-19T04:59:18;14.40;99.90
15947;DHT22;8072;52.554;7.966;2023-09-19T05:01:44;14.40;99.90
15947;DHT22;8072;52.554;7.966;2023-09-19T05:04:09;14.40;99.90
15947;DHT22;8072;52.554;7.966;2023-09-19T05:06:35;14.30;99.90
15947;DHT22;8072;52.554;7.966;2023-09-19T05:09:01;14.30;99.90
15947;DHT22;8072;52.554;7.966;2023-09-19T05:11:27;14.30;99.90
15947;DHT22;8072;52.554;7.966;2023-09-19T05:13:55;14.30;99.90
15947;DHT22;8072;52.554;7.966;2023-09-19T05:16:21;14.30;99.90
15947;DHT22;8072;52.554;7.966;2023-09-19T05:18:47;14.30;99.90
15947;DHT22;8072;52.554;7.966;2023-09-19T05:21:13;14.20;99.90
15947;DHT22;8072;52.554;7.966;2023-09-19T05:23:39;14.20;99.90
15947;DHT22;8072;52.554;7.966;2023-09-19T05:26:05;14.20;99.90
15947;DHT22;8072;52.554;7.966;2023-09-19T05:28:30;14.20;99.90
15947;DHT22;8072;52.554;7.966;2023-09-19T05:31:03;14.20;99.90
15947;DHT22;8072;52.554;7.966;2023-09-19T05:33:28;14.20;99.90
15947;DHT22;8072;52.554;7.966;2023-09-19T05:35:56;14.10;99.90
15947;DHT22;8072;52.554;7.966;2023-09-19T05:38:22;14.10;99.90
15947;DHT22;8072;52.554;7.966;2023-09-19T05:40:48;14.20;99.90
15947;DHT22;8072;52.554;7.966;2023-09-19T05:43:14;14.20;99.90
15947;DHT22;8072;52.554;7.966;2023-09-19T05:45:40;14.20;99.90
15947;DHT22;8072;52.554;7.966;2023-09-19T05:48:14;14.20;99.90
15947;DHT22;8072;52.554;7.966;2023-09-19T05:50:42;14.20;99.90
15947;DHT22;8072;52.554;7.966;2023-09-19T05:53:08;14.20;99.90
15947;DHT22;8072;52.554;7.966;2023-09-19T05:55:37;14.20;99.90
15947;DHT22;8072;52.554;7.966;2023-09-19T05:58:03;14.30;99.90
15947;DHT22;8072;52.554;7.966;2023-09-19T06:00:29;14.30;99.90
15947;DHT22;8072;52.554;7.966;2023-09-19T06:02:58;14.30;99.90
15947;DHT22;8072;52.554;7.966;2023-09-19T06:05:25;14.30;99.90
15947;DHT22;8072;52.554;7.966;2023-09-19T06:07:53;14.30;99.90
15947;DHT22;8072;52.554;7.966;2023-09-19T06:10:19;14.30;99.90
15947;DHT22;8072;52.554;7.966;2023-09-19T06:12:46;14.30;99.90
15947;DHT22;8072;52.554;7.966;2023-09-19T06:15:14;14.30;99.90
15947;DHT22;8072;52.554;7.966;2023-09-19T06:17:55;14.30;99.90
15947;DHT22;8072;52.554;7.966;2023-09-19T06:20:22;14.30;99.90
15947;DHT22;8072;52.554;7.966;2023-09-19T06:22:49;14.30;99.90
15947;DHT22;8072;52.554;7.966;2023-09-19T06:25:16;14.40;99.90
15947;DHT22;8072;52.554;7.966;2023-09-19T06:27:51;14.40;99.90
15947;DHT22;8072;52.554;7.966;2023-09-19T06:30:20;14.40;99.90
15947;DHT22;8072;52.554;7.966;2023-09-19T06:32:47;14.50;99.90
15947;DHT22;8072;52.554;7.966;2023-09-19T06:35:15;14.60;99.90
15947;DHT22;8072;52.554;7.966;2023-09-19T06:37:42;14.60;99.90
15947;DHT22;8072;52.554;7.966;2023-09-19T06:40:12;14.60;99.90
15947;DHT22;8072;52.554;7.966;2023-09-19T06:42:46;14.70;99.90
15947;DHT22;8072;52.554;7.966;2023-09-19T06:45:13;14.80;99.90
15947;DHT22;8072;52.554;7.966;2023-09-19T06:47:46;14.80;99.90
15947;DHT22;8072;52.554;7.966;2023-09-19T06:50:22;14.90;99.90
15947;DHT22;8072;52.554;7.966;2023-09-19T06:52:49;15.00;99.90
15947;DHT22;8072;52.554;7.966;2023-09-19T06:55:16;15.00;99.90
15947;DHT22;8072;52.554;7.966;2023-09-19T06:57:43;15.10;99.90
15947;DHT22;8072;52.554;7.966;2023-09-19T07:00:10;15.10;99.90
15947;DHT22;8072;52.554;7.966;2023-09-19T07:02:41;15.10;99.90
15947;DHT22;8072;52.554;7.966;2023-09-19T07:05:08;15.20;99.90
15947;DHT22;8072;52.554;7.966;2023-09-19T07:07:33;15.20;99.90
15947;DHT22;8072;52.554;7.966;2023-09-19T07:10:03;15.30;99.90
15947;DHT22;8072;52.554;7.966;2023-09-19T07:12:31;15.30;99.90
15947;DHT22;8072;52.554;7.966;2023-09-19T07:14:58;15.20;99.90
15947;DHT22;8072;52.554;7.966;2023-09-19T07:17:24;15.20;99.90
15947;DHT22;8072;52.554;7.966;2023-09-19T07:19:50;15.20;99.90
15947;DHT22;8072;52.554;7.966;2023-09-19T07:22:16;15.20;99.90
15947;DHT22;8072;52.554;7.966;2023-09-19T07:24:42;15.20;99.90
15947;DHT22;8072;52.554;7.966;2023-09-19T07:27:08;15.20;99.90
15947;DHT22;8072;52.554;7.966;2023-09-19T07:29:34;15.20;99.90
15947;DHT22;8072;52.554;7.966;2023-09-19T07:32:00;15.20;99.90
15947;DHT22;8072;52.554;7.966;2023-09-19T07:34:26;15.20;99.90
15947;DHT22;8072;52.554;7.966;2023-09-19T07:36:51;15.30;99.90
15947;DHT22;8072;52.554;7.966;2023-09-19T07:39:17;15.30;99.90
15947;DHT22;8072;52.554;7.966;2023-09-19T07:41:43;15.40;99.90
15947;DHT22;8072;52.554;7.966;2023-09-19T07:44:08;15.50;99.90
15947;DHT22;8072;52.554;7.966;2023-09-19T07:46:38;15.50;99.90
15947;DHT22;8072;52.554;7.966;2023-09-19T07:49:04;15.60;99.90
15947;DHT22;8072;52.554;7.966;2023-09-19T07:51:30;15.80;99.90
15947;DHT22;8072;52.554;7.966;2023-09-19T07:53:57;15.70;99.90
15947;DHT22;8072;52.554;7.966;2023-09-19T07:56:22;15.80;99.90
15947;DHT22;8072;52.554;7.966;2023-09-19T07:58:48;15.80;99.90
15947;DHT22;8072;52.554;7.966;2023-09-19T08:01:14;15.90;99.90
15947;DHT22;8072;52.554;7.966;2023-09-19T08:03:41;15.90;99.90
15947;DHT22;8072;52.554;7.966;2023-09-19T08:06:09;15.90;99.90
15947;DHT22;8072;52.554;7.966;2023-09-19T08:08:36;15.90;99.90
15947;DHT22;8072;52.554;7.966;2023-09-19T08:11:05;16.00;99.90
15947;DHT22;8072;52.554;7.966;2023-09-19T08:13:38;16.00;99.90
15947;DHT22;8072;52.554;7.966;2023-09-19T08:16:10;16.10;99.90
15947;DHT22;8072;52.554;7.966;2023-09-19T08:18:36;16.10;99.90
15947;DHT22;8072;52.554;7.966;2023-09-19T08:21:05;16.10;99.90
15947;DHT22;8072;52.554;7.966;2023-09-19T08:23:37;16.10;99.90
15947;DHT22;8072;52.554;7.966;2023-09-19T08:26:04;16.30;99.90
15947;DHT22;8072;52.554;7.966;2023-09-19T08:28:32;16.30;99.90
15947;DHT22;8072;52.554;7.966;2023-09-19T08:31:03;16.40;99.90
15947;DHT22;8072;52.554;7.966;2023-09-19T08:33:34;16.40;99.90
15947;DHT22;8072;52.554;7.966;2023-09-19T08:36:02;16.50;99.90
15947;DHT22;8072;52.554;7.966;2023-09-19T08:38:31;16.50;99.90
15947;DHT22;8072;52.554;7.966;2023-09-19T08:40:58;16.60;99.90
15947;DHT22;8072;52.554;7.966;2023-09-19T08:43:27;16.60;99.90
15947;DHT22;8072;52.554;7.966;2023-09-19T08:46:03;16.60;99.90
15947;DHT22;8072;52.554;7.966;2023-09-19T08:48:30;16.60;99.90
15947;DHT22;8072;52.554;7.966;2023-09-19T08:51:03;16.60;99.90
15947;DHT22;8072;52.554;7.966;2023-09-19T08:56:10;16.60;99.90
15947;DHT22;8072;52.554;7.966;2023-09-19T08:59:00;16.70;99.90
15947;DHT22;8072;52.554;7.966;2023-09-19T09:01:30;16.70;99.90
15947;DHT22;8072;52.554;7.966;2023-09-19T09:03:58;16.60;99.90
15947;DHT22;8072;52.554;7.966;2023-09-19T09:06:25;16.70;99.90
15947;DHT22;8072;52.554;7.966;2023-09-19T09:08:51;16.70;99.90
15947;DHT22;8072;52.554;7.966;2023-09-19T09:11:18;16.70;99.90
15947;DHT22;8072;52.554;7.966;2023-09-19T09:13:44;16.70;99.90
15947;DHT22;8072;52.554;7.966;2023-09-19T09:16:11;16.80;99.90
15947;DHT22;8072;52.554;7.966;2023-09-19T09:18:38;16.80;99.90
15947;DHT22;8072;52.554;7.966;2023-09-19T09:21:04;16.90;99.90
15947;DHT22;8072;52.554;7.966;2023-09-19T09:23:30;16.90;99.90
15947;DHT22;8072;52.554;7.966;2023-09-19T09:25:58;16.90;99.90
15947;DHT22;8072;52.554;7.966;2023-09-19T09:28:33;17.00;99.90
15947;DHT22;8072;52.554;7.966;2023-09-19T09:31:01;17.10;99.90
15947;DHT22;8072;52.554;7.966;2023-09-19T09:33:29;17.10;99.90
15947;DHT22;8072;52.554;7.966;2023-09-19T09:35:59;17.20;99.90
15947;DHT22;8072;52.554;7.966;2023-09-19T09:38:47;17.20;99.90
15947;DHT22;8072;52.554;7.966;2023-09-19T09:41:36;17.20;99.90
15947;DHT22;8072;52.554;7.966;2023-09-19T09:44:23;17.20;99.90
15947;DHT22;8072;52.554;7.966;2023-09-19T09:46:49;17.30;99.90
15947;DHT22;8072;52.554;7.966;2023-09-19T09:49:27;17.50;99.90
15947;DHT22;8072;52.554;7.966;2023-09-19T09:52:06;17.50;99.90
15947;DHT22;8072;52.554;7.966;2023-09-19T09:54:34;17.60;99.90
15947;DHT22;8072;52.554;7.966;2023-09-19T09:57:10;17.60;99.90
15947;DHT22;8072;52.554;7.966;2023-09-19T09:59:56;17.70;99.90
15947;DHT22;8072;52.554;7.966;2023-09-19T10:02:42;17.70;99.90
15947;DHT22;8072;52.554;7.966;2023-09-19T10:05:18;17.70;99.90
15947;DHT22;8072;52.554;7.966;2023-09-19T10:07:54;17.80;99.90
15947;DHT22;8072;52.554;7.966;2023-09-19T10:10:36;17.80;99.90
15947;DHT22;8072;52.554;7.966;2023-09-19T10:13:19;17.90;99.90
15947;DHT22;8072;52.554;7.966;2023-09-19T10:15:51;18.00;99.90
15947;DHT22;8072;52.554;7.966;2023-09-19T10:18:25;18.00;99.90
15947;DHT22;8072;52.554;7.966;2023-09-19T10:20:52;18.00;99.90
15947;DHT22;8072;52.554;7.966;2023-09-19T10:23:19;18.00;99.90
15947;DHT22;8072;52.554;7.966;2023-09-19T10:25:49;18.00;99.90
15947;DHT22;8072;52.554;7.966;2023-09-19T10:28:17;18.10;99.90
15947;DHT22;8072;52.554;7.966;2023-09-19T10:30:48;18.20;99.90
15947;DHT22;8072;52.554;7.966;2023-09-19T10:33:17;18.30;99.90
15947;DHT22;8072;52.554;7.966;2023-09-19T10:35:45;18.30;99.90
15947;DHT22;8072;52.554;7.966;2023-09-19T10:38:13;18.30;99.90
15947;DHT22;8072;52.554;7.966;2023-09-19T10:40:40;18.20;99.90
15947;DHT22;8072;52.554;7.966;2023-09-19T10:43:15;18.10;99.90
15947;DHT22;8072;52.554;7.966;2023-09-19T10:45:45;18.20;99.90
15947;DHT22;8072;52.554;7.966;2023-09-19T10:48:18;18.20;99.90
15947;DHT22;8072;52.554;7.966;2023-09-19T10:53:26;18.30;99.90
15947;DHT22;8072;52.554;7.966;2023-09-19T10:55:57;18.40;99.90
15947;DHT22;8072;52.554;7.966;2023-09-19T10:58:29;18.40;99.90
15947;DHT22;8072;52.554;7.966;2023-09-19T11:01:00;18.30;99.90
15947;DHT22;8072;52.554;7.966;2023-09-19T11:03:38;18.40;99.90
15947;DHT22;8072;52.554;7.966;2023-09-19T11:06:16;18.60;99.90
15947;DHT22;8072;52.554;7.966;2023-09-19T11:09:03;18.80;99.90
15947;DHT22;8072;52.554;7.966;2023-09-19T11:11:48;18.80;99.90
15947;DHT22;8072;52.554;7.966;2023-09-19T11:30:50;18.70;99.90
15947;DHT22;8072;52.554;7.966;2023-09-19T11:43:52;18.90;99.90
15947;DHT22;8072;52.554;7.966;2023-09-19T11:46:20;18.90;99.90
15947;DHT22;8072;52.554;7.966;2023-09-19T11:48:50;19.00;99.90
15947;DHT22;8072;52.554;7.966;2023-09-19T11:51:26;18.90;99.90
15947;DHT22;8072;52.554;7.966;2023-09-19T11:53:58;19.10;99.90
15947;DHT22;8072;52.554;7.966;2023-09-19T11:56:28;19.10;99.90
15947;DHT22;8072;52.554;7.966;2023-09-19T11:58:55;19.10;99.90
15947;DHT22;8072;52.554;7.966;2023-09-19T12:01:23;19.30;99.90
15947;DHT22;8072;52.554;7.966;2023-09-19T12:03:53;19.50;99.90
15947;DHT22;8072;52.554;7.966;2023-09-19T12:06:20;19.50;99.90
15947;DHT22;8072;52.554;7.966;2023-09-19T12:08:47;19.60;99.90
15947;DHT22;8072;52.554;7.966;2023-09-19T12:11:15;19.70;99.90
15947;DHT22;8072;52.554;7.966;2023-09-19T12:13:45;19.80;99.90
15947;DHT22;8072;52.554;7.966;2023-09-19T12:16:15;19.90;99.90
15947;DHT22;8072;52.554;7.966;2023-09-19T12:18:44;20.00;99.90
15947;DHT22;8072;52.554;7.966;2023-09-19T12:21:23;19.90;99.90
15947;DHT22;8072;52.554;7.966;2023-09-19T12:26:44;20.00;99.90
15947;DHT22;8072;52.554;7.966;2023-09-19T12:29:17;20.10;99.90
15947;DHT22;8072;52.554;7.966;2023-09-19T12:31:53;20.10;99.90
15947;DHT22;8072;52.554;7.966;2023-09-19T12:34:32;20.20;99.90
15947;DHT22;8072;52.554;7.966;2023-09-19T12:39:52;20.00;99.90
15947;DHT22;8072;52.554;7.966;2023-09-19T12:42:26;19.90;99.90
15947;DHT22;8072;52.554;7.966;2023-09-19T12:45:01;19.80;99.90
15947;DHT22;8072;52.554;7.966;2023-09-19T12:47:29;19.70;99.90
15947;DHT22;8072;52.554;7.966;2023-09-19T12:52:49;19.60;99.90
15947;DHT22;8072;52.554;7.966;2023-09-19T12:55:22;19.60;99.90
15947;DHT22;8072;52.554;7.966;2023-09-19T12:58:12;19.50;99.90
15947;DHT22;8072;52.554;7.966;2023-09-19T13:00:42;19.50;99.90
15947;DHT22;8072;52.554;7.966;2023-09-19T13:08:28;19.50;99.90
15947;DHT22;8072;52.554;7.966;2023-09-19T13:16:05;19.40;99.90
15947;DHT22;8072;52.554;7.966;2023-09-19T13:18:54;19.80;99.90
15947;DHT22;8072;52.554;7.966;2023-09-19T13:21:48;20.20;99.90
15947;DHT22;8072;52.554;7.966;2023-09-19T13:24:24;20.10;99.90
15947;DHT22;8072;52.554;7.966;2023-09-19T13:26:54;19.90;99.90
15947;DHT22;8072;52.554;7.966;2023-09-19T13:29:20;19.70;99.90
15947;DHT22;8072;52.554;7.966;2023-09-19T13:31:49;19.50;99.90
15947;DHT22;8072;52.554;7.966;2023-09-19T13:34:16;19.40;99.90
15947;DHT22;8072;52.554;7.966;2023-09-19T13:36:43;19.40;99.90
15947;DHT22;8072;52.554;7.966;2023-09-19T13:39:09;19.40;99.90
15947;DHT22;8072;52.554;7.966;2023-09-19T13:41:35;19.70;99.90
15947;DHT22;8072;52.554;7.966;2023-09-19T13:44:05;20.00;99.90
15947;DHT22;8072;52.554;7.966;2023-09-19T13:46:31;20.30;99.90
15947;DHT22;8072;52.554;7.966;2023-09-19T13:49:02;20.40;99.90
15947;DHT22;8072;52.554;7.966;2023-09-19T13:51:31;20.50;99.90
15947;DHT22;8072;52.554;7.966;2023-09-19T13:53:57;20.50;99.90
15947;DHT22;8072;52.554;7.966;2023-09-19T13:56:23;20.20;99.90
15947;DHT22;8072;52.554;7.966;2023-09-19T13:58:49;20.10;99.90
15947;DHT22;8072;52.554;7.966;2023-09-19T14:01:15;19.90;99.90
15947;DHT22;8072;52.554;7.966;2023-09-19T14:03:41;19.70;99.90
15947;DHT22;8072;52.554;7.966;2023-09-19T14:06:15;19.90;99.90
15947;DHT22;8072;52.554;7.966;2023-09-19T14:08:41;20.00;99.90
15947;DHT22;8072;52.554;7.966;2023-09-19T14:11:08;19.90;99.90
15947;DHT22;8072;52.554;7.966;2023-09-19T14:13:34;19.80;99.90
15947;DHT22;8072;52.554;7.966;2023-09-19T14:16:06;19.80;99.90
15947;DHT22;8072;52.554;7.966;2023-09-19T14:18:34;19.50;99.90
15947;DHT22;8072;52.554;7.966;2023-09-19T14:21:04;19.50;99.90
15947;DHT22;8072;52.554;7.966;2023-09-19T14:23:38;19.40;99.90
15947;DHT22;8072;52.554;7.966;2023-09-19T14:26:04;19.30;99.90
15947;DHT22;8072;52.554;7.966;2023-09-19T14:28:33;19.20;99.90
15947;DHT22;8072;52.554;7.966;2023-09-19T14:31:04;19.20;99.90
15947;DHT22;8072;52.554;7.966;2023-09-19T14:33:31;19.10;99.90
15947;DHT22;8072;52.554;7.966;2023-09-19T14:35:57;19.10;99.90
15947;DHT22;8072;52.554;7.966;2023-09-19T14:38:23;19.20;99.90
15947;DHT22;8072;52.554;7.966;2023-09-19T14:40:48;19.20;99.90
15947;DHT22;8072;52.554;7.966;2023-09-19T14:43:15;19.20;99.90
15947;DHT22;8072;52.554;7.966;2023-09-19T14:45:41;19.30;99.90
15947;DHT22;8072;52.554;7.966;2023-09-19T14:48:07;19.30;99.90
15947;DHT22;8072;52.554;7.966;2023-09-19T14:50:33;19.20;99.90
15947;DHT22;8072;52.554;7.966;2023-09-19T14:52:58;19.20;99.90
15947;DHT22;8072;52.554;7.966;2023-09-19T14:55:27;19.20;99.90
15947;DHT22;8072;52.554;7.966;2023-09-19T14:57:55;19.10;99.90
15947;DHT22;8072;52.554;7.966;2023-09-19T15:00:22;19.10;99.90
15947;DHT22;8072;52.554;7.966;2023-09-19T15:02:49;19.10;99.90
15947;DHT22;8072;52.554;7.966;2023-09-19T15:05:16;19.10;99.90
15947;DHT22;8072;52.554;7.966;2023-09-19T15:07:42;19.10;99.90
15947;DHT22;8072;52.554;7.966;2023-09-19T15:10:08;19.10;99.90
15947;DHT22;8072;52.554;7.966;2023-09-19T15:12:38;19.10;99.90
15947;DHT22;8072;52.554;7.966;2023-09-19T15:15:05;19.10;99.90
15947;DHT22;8072;52.554;7.966;2023-09-19T15:17:35;19.20;99.90
15947;DHT22;8072;52.554;7.966;2023-09-19T15:20:02;19.10;99.90
15947;DHT22;8072;52.554;7.966;2023-09-19T15:22:28;19.10;99.90
15947;DHT22;8072;52.554;7.966;2023-09-19T15:24:54;19.10;99.90
15947;DHT22;8072;52.554;7.966;2023-09-19T15:27:20;19.00;99.90
15947;DHT22;8072;52.554;7.966;2023-09-19T15:29:46;19.00;99.90
15947;DHT22;8072;52.554;7.966;2023-09-19T15:32:13;19.00;99.90
15947;DHT22;8072;52.554;7.966;2023-09-19T15:34:38;19.00;99.90
15947;DHT22;8072;52.554;7.966;2023-09-19T15:37:04;19.00;99.90
15947;DHT22;8072;52.554;7.966;2023-09-19T15:39:30;19.00;99.90
15947;DHT22;8072;52.554;7.966;2023-09-19T15:41:59;19.00;99.90
15947;DHT22;8072;52.554;7.966;2023-09-19T15:44:25;19.00;99.90
15947;DHT22;8072;52.554;7.966;2023-09-19T15:46:53;19.00;99.90
15947;DHT22;8072;52.554;7.966;2023-09-19T15:49:19;19.00;99.90
15947;DHT22;8072;52.554;7.966;2023-09-19T15:51:46;19.10;99.90
15947;DHT22;8072;52.554;7.966;2023-09-19T15:54:14;19.10;99.90
15947;DHT22;8072;52.554;7.966;2023-09-19T15:56:44;19.10;99.90
15947;DHT22;8072;52.554;7.966;2023-09-19T15:59:10;19.10;99.90
15947;DHT22;8072;52.554;7.966;2023-09-19T16:01:39;19.10;99.90
15947;DHT22;8072;52.554;7.966;2023-09-19T16:04:08;19.10;99.90
15947;DHT22;8072;52.554;7.966;2023-09-19T16:06:35;19.20;99.90
15947;DHT22;8072;52.554;7.966;2023-09-19T16:09:02;19.20;99.90
15947;DHT22;8072;52.554;7.966;2023-09-19T16:11:33;19.10;99.90
15947;DHT22;8072;52.554;7.966;2023-09-19T16:13:59;19.10;99.90
15947;DHT22;8072;52.554;7.966;2023-09-19T16:16:26;19.10;99.90
15947;DHT22;8072;52.554;7.966;2023-09-19T16:19:00;19.10;99.90
15947;DHT22;8072;52.554;7.966;2023-09-19T16:21:32;19.10;99.90
15947;DHT22;8072;52.554;7.966;2023-09-19T16:24:00;19.10;99.90
15947;DHT22;8072;52.554;7.966;2023-09-19T16:26:27;19.00;99.90
15947;DHT22;8072;52.554;7.966;2023-09-19T16:28:57;19.00;99.90
15947;DHT22;8072;52.554;7.966;2023-09-19T16:31:27;19.00;99.90
15947;DHT22;8072;52.554;7.966;2023-09-19T16:33:53;19.00;99.90
15947;DHT22;8072;52.554;7.966;2023-09-19T16:36:20;19.00;99.90
15947;DHT22;8072;52.554;7.966;2023-09-19T16:38:47;19.00;99.90
15947;DHT22;8072;52.554;7.966;2023-09-19T16:41:14;19.00;99.90
15947;DHT22;8072;52.554;7.966;2023-09-19T16:43:40;18.90;99.90
15947;DHT22;8072;52.554;7.966;2023-09-19T16:46:08;18.90;99.90
15947;DHT22;8072;52.554;7.966;2023-09-19T16:48:37;18.90;99.90
15947;DHT22;8072;52.554;7.966;2023-09-19T16:51:09;18.90;99.90
15947;DHT22;8072;52.554;7.966;2023-09-19T16:53:37;18.90;99.90
15947;DHT22;8072;52.554;7.966;2023-09-19T16:56:10;18.90;99.90
15947;DHT22;8072;52.554;7.966;2023-09-19T16:58:42;18.90;99.90
15947;DHT22;8072;52.554;7.966;2023-09-19T17:01:10;18.80;99.90
15947;DHT22;8072;52.554;7.966;2023-09-19T17:03:40;18.80;99.90
15947;DHT22;8072;52.554;7.966;2023-09-19T17:06:15;18.80;99.90
15947;DHT22;8072;52.554;7.966;2023-09-19T17:08:43;18.80;99.90